sensor_id;sensor_type;location;lat;lon;timestamp;P1;durP1;ratioP1;P2;durP2;ratioP2
65018;SDS011;66069;51.164;-114.452;2023-06-14T00:01:32;2.47;;;1.05;;
65018;SDS011;66069;51.164;-114.452;2023-06-14T00:04:00;2.15;;;1.17;;
65018;SDS011;66069;51.164;-114.452;2023-06-14T00:06:28;2.30;;;1.30;;
65018;SDS011;66069;51.164;-114.452;2023-06-14T00:08:54;3.85;;;1.30;;
65018;SDS011;66069;51.164;-114.452;2023-06-14T00:11:20;2.35;;;1.17;;
65018;SDS011;66069;51.164;-114.452;2023-06-14T00:13:46;2.22;;;1.20;;
65018;SDS011;66069;51.164;-114.452;2023-06-14T00:16:12;2.60;;;1.33;;
65018;SDS011;66069;51.164;-114.452;2023-06-14T00:18:38;2.30;;;1.10;;
65018;SDS011;66069;51.164;-114.452;2023-06-14T00:21:04;2.22;;;1.13;;
65018;SDS011;66069;51.164;-114.452;2023-06-14T00:23:33;4.50;;;1.40;;
65018;SDS011;66069;51.164;-114.452;2023-06-14T00:25:59;3.33;;;1.20;;
65018;SDS011;66069;51.164;-114.452;2023-06-14T00:28:25;2.85;;;0.90;;
65018;SDS011;66069;51.164;-114.452;2023-06-14T00:30:51;2.38;;;1.27;;
65018;SDS011;66069;51.164;-114.452;2023-06-14T00:33:17;2.60;;;1.20;;
65018;SDS011;66069;51.164;-114.452;2023-06-14T00:35:43;1.90;;;1.10;;
65018;SDS011;66069;51.164;-114.452;2023-06-14T00:38:09;2.17;;;1.10;;
65018;SDS011;66069;51.164;-114.452;2023-06-14T00:40:35;2.10;;;1.20;;
65018;SDS011;66069;51.164;-114.452;2023-06-14T00:43:01;2.00;;;1.10;;
65018;SDS011;66069;51.164;-114.452;2023-06-14T00:45:27;2.20;;;1.10;;
65018;SDS011;66069;51.164;-114.452;2023-06-14T00:47:53;2.40;;;1.30;;
65018;SDS011;66069;51.164;-114.452;2023-06-14T00:50:20;2.22;;;1.17;;
65018;SDS011;66069;51.164;-114.452;2023-06-14T00:52:47;2.10;;;1.05;;
65018;SDS011;66069;51.164;-114.452;2023-06-14T00:55:13;2.58;;;1.30;;
65018;SDS011;66069;51.164;-114.452;2023-06-14T00:57:39;1.85;;;1.05;;
65018;SDS011;66069;51.164;-114.452;2023-06-14T01:00:05;2.10;;;1.20;;
65018;SDS011;66069;51.164;-114.452;2023-06-14T01:02:36;2.30;;;1.20;;
65018;SDS011;66069;51.164;-114.452;2023-06-14T01:05:06;1.90;;;1.00;;
65018;SDS011;66069;51.164;-114.452;2023-06-14T01:07:34;2.23;;;1.20;;
65018;SDS011;66069;51.164;-114.452;2023-06-14T01:12:50;1.67;;;0.85;;
65018;SDS011;66069;51.164;-114.452;2023-06-14T01:15:19;1.92;;;1.00;;
65018;SDS011;66069;51.164;-114.452;2023-06-14T01:17:46;2.28;;;1.25;;
65018;SDS011;66069;51.164;-114.452;2023-06-14T01:20:17;2.50;;;0.98;;
65018;SDS011;66069;51.164;-114.452;2023-06-14T01:22:52;1.95;;;0.90;;
65018;SDS011;66069;51.164;-114.452;2023-06-14T01:25:21;2.63;;;1.20;;
65018;SDS011;66069;51.164;-114.452;2023-06-14T01:28:03;1.98;;;1.02;;
65018;SDS011;66069;51.164;-114.452;2023-06-14T01:30:40;1.95;;;0.98;;
65018;SDS011;66069;51.164;-114.452;2023-06-14T01:33:26;2.30;;;1.23;;
65018;SDS011;66069;51.164;-114.452;2023-06-14T01:35:53;2.55;;;1.10;;
65018;SDS011;66069;51.164;-114.452;2023-06-14T01:38:20;3.20;;;1.10;;
65018;SDS011;66069;51.164;-114.452;2023-06-14T01:40:50;2.25;;;1.10;;
65018;SDS011;66069;51.164;-114.452;2023-06-14T01:43:26;2.10;;;1.00;;
65018;SDS011;66069;51.164;-114.452;2023-06-14T01:45:53;1.90;;;1.05;;
65018;SDS011;66069;51.164;-114.452;2023-06-14T01:48:21;2.03;;;1.10;;
65018;SDS011;66069;51.164;-114.452;2023-06-14T01:50:50;1.75;;;0.90;;
65018;SDS011;66069;51.164;-114.452;2023-06-14T01:53:16;2.15;;;1.10;;
65018;SDS011;66069;51.164;-114.452;2023-06-14T01:55:45;2.20;;;1.00;;
65018;SDS011;66069;51.164;-114.452;2023-06-14T01:58:14;2.65;;;1.05;;
65018;SDS011;66069;51.164;-114.452;2023-06-14T02:00:41;2.10;;;1.30;;
65018;SDS011;66069;51.164;-114.452;2023-06-14T02:03:09;2.42;;;1.20;;
65018;SDS011;66069;51.164;-114.452;2023-06-14T02:05:37;2.20;;;1.02;;
65018;SDS011;66069;51.164;-114.452;2023-06-14T02:08:04;2.05;;;0.95;;
65018;SDS011;66069;51.164;-114.452;2023-06-14T02:10:30;2.40;;;1.20;;
65018;SDS011;66069;51.164;-114.452;2023-06-14T02:12:56;3.35;;;1.00;;
65018;SDS011;66069;51.164;-114.452;2023-06-14T02:15:22;1.92;;;0.93;;
65018;SDS011;66069;51.164;-114.452;2023-06-14T02:17:48;2.20;;;1.10;;
65018;SDS011;66069;51.164;-114.452;2023-06-14T02:20:17;2.10;;;1.10;;
65018;SDS011;66069;51.164;-114.452;2023-06-14T02:22:43;2.53;;;1.15;;
65018;SDS011;66069;51.164;-114.452;2023-06-14T02:25:10;2.13;;;1.00;;
65018;SDS011;66069;51.164;-114.452;2023-06-14T02:27:36;3.15;;;1.20;;
65018;SDS011;66069;51.164;-114.452;2023-06-14T02:30:02;1.77;;;0.93;;
65018;SDS011;66069;51.164;-114.452;2023-06-14T02:32:28;2.00;;;0.90;;
65018;SDS011;66069;51.164;-114.452;2023-06-14T02:34:54;1.88;;;1.00;;
65018;SDS011;66069;51.164;-114.452;2023-06-14T02:37:20;2.67;;;1.10;;
65018;SDS011;66069;51.164;-114.452;2023-06-14T02:39:46;1.98;;;0.93;;
65018;SDS011;66069;51.164;-114.452;2023-06-14T02:42:11;1.77;;;0.90;;
65018;SDS011;66069;51.164;-114.452;2023-06-14T02:44:37;1.90;;;1.00;;
65018;SDS011;66069;51.164;-114.452;2023-06-14T02:47:04;1.90;;;0.80;;
65018;SDS011;66069;51.164;-114.452;2023-06-14T02:49:30;3.15;;;1.25;;
65018;SDS011;66069;51.164;-114.452;2023-06-14T02:51:56;2.15;;;1.10;;
65018;SDS011;66069;51.164;-114.452;2023-06-14T02:54:22;2.22;;;1.15;;
65018;SDS011;66069;51.164;-114.452;2023-06-14T02:56:50;1.85;;;1.00;;
65018;SDS011;66069;51.164;-114.452;2023-06-14T02:59:16;2.08;;;1.00;;
65018;SDS011;66069;51.164;-114.452;2023-06-14T03:01:42;1.70;;;0.98;;
65018;SDS011;66069;51.164;-114.452;2023-06-14T03:04:08;2.25;;;0.95;;
65018;SDS011;66069;51.164;-114.452;2023-06-14T03:06:35;2.05;;;1.00;;
65018;SDS011;66069;51.164;-114.452;2023-06-14T03:09:01;1.80;;;1.02;;
65018;SDS011;66069;51.164;-114.452;2023-06-14T03:11:30;2.65;;;1.10;;
65018;SDS011;66069;51.164;-114.452;2023-06-14T03:13:56;2.92;;;0.85;;
65018;SDS011;66069;51.164;-114.452;2023-06-14T03:16:22;1.95;;;1.00;;
65018;SDS011;66069;51.164;-114.452;2023-06-14T03:18:51;1.98;;;0.98;;
65018;SDS011;66069;51.164;-114.452;2023-06-14T03:21:18;1.80;;;0.80;;
65018;SDS011;66069;51.164;-114.452;2023-06-14T03:23:46;1.85;;;1.10;;
65018;SDS011;66069;51.164;-114.452;2023-06-14T03:26:12;1.80;;;0.95;;
65018;SDS011;66069;51.164;-114.452;2023-06-14T03:28:46;1.35;;;0.80;;
65018;SDS011;66069;51.164;-114.452;2023-06-14T03:31:12;1.85;;;0.90;;
65018;SDS011;66069;51.164;-114.452;2023-06-14T03:33:39;1.45;;;0.85;;
65018;SDS011;66069;51.164;-114.452;2023-06-14T03:36:05;1.70;;;0.80;;
65018;SDS011;66069;51.164;-114.452;2023-06-14T03:38:32;2.00;;;0.90;;
65018;SDS011;66069;51.164;-114.452;2023-06-14T03:40:58;1.63;;;0.80;;
65018;SDS011;66069;51.164;-114.452;2023-06-14T03:43:24;2.00;;;0.93;;
65018;SDS011;66069;51.164;-114.452;2023-06-14T03:45:50;2.20;;;0.90;;
65018;SDS011;66069;51.164;-114.452;2023-06-14T03:48:16;1.70;;;0.90;;
65018;SDS011;66069;51.164;-114.452;2023-06-14T03:50:42;1.90;;;0.93;;
65018;SDS011;66069;51.164;-114.452;2023-06-14T03:53:08;1.70;;;0.80;;
65018;SDS011;66069;51.164;-114.452;2023-06-14T03:55:34;2.03;;;1.02;;
65018;SDS011;66069;51.164;-114.452;2023-06-14T03:58:00;1.60;;;0.85;;
65018;SDS011;66069;51.164;-114.452;2023-06-14T04:00:26;1.58;;;0.90;;
65018;SDS011;66069;51.164;-114.452;2023-06-14T04:02:52;1.77;;;0.90;;
65018;SDS011;66069;51.164;-114.452;2023-06-14T04:05:19;1.98;;;0.93;;
65018;SDS011;66069;51.164;-114.452;2023-06-14T04:07:46;1.95;;;0.90;;
65018;SDS011;66069;51.164;-114.452;2023-06-14T04:10:14;2.20;;;1.13;;
65018;SDS011;66069;51.164;-114.452;2023-06-14T04:12:40;1.40;;;0.80;;
65018;SDS011;66069;51.164;-114.452;2023-06-14T04:15:06;1.75;;;1.00;;
65018;SDS011;66069;51.164;-114.452;2023-06-14T04:17:33;2.05;;;0.95;;
65018;SDS011;66069;51.164;-114.452;2023-06-14T04:19:59;1.83;;;0.90;;
65018;SDS011;66069;51.164;-114.452;2023-06-14T04:22:28;1.92;;;0.80;;
65018;SDS011;66069;51.164;-114.452;2023-06-14T04:24:54;1.48;;;0.80;;
65018;SDS011;66069;51.164;-114.452;2023-06-14T04:27:25;1.92;;;1.00;;
65018;SDS011;66069;51.164;-114.452;2023-06-14T04:29:52;1.63;;;0.82;;
65018;SDS011;66069;51.164;-114.452;2023-06-14T04:32:27;1.52;;;0.90;;
65018;SDS011;66069;51.164;-114.452;2023-06-14T04:34:55;2.15;;;1.02;;
65018;SDS011;66069;51.164;-114.452;2023-06-14T04:37:21;2.42;;;1.00;;
65018;SDS011;66069;51.164;-114.452;2023-06-14T04:39:48;1.80;;;0.98;;
65018;SDS011;66069;51.164;-114.452;2023-06-14T04:42:14;1.83;;;1.00;;
65018;SDS011;66069;51.164;-114.452;2023-06-14T04:44:41;1.90;;;0.80;;
65018;SDS011;66069;51.164;-114.452;2023-06-14T04:47:09;1.83;;;0.90;;
65018;SDS011;66069;51.164;-114.452;2023-06-14T04:49:35;1.50;;;0.80;;
65018;SDS011;66069;51.164;-114.452;2023-06-14T04:52:01;3.60;;;1.00;;
65018;SDS011;66069;51.164;-114.452;2023-06-14T04:54:27;1.45;;;0.80;;
65018;SDS011;66069;51.164;-114.452;2023-06-14T04:56:53;2.08;;;1.00;;
65018;SDS011;66069;51.164;-114.452;2023-06-14T04:59:21;1.70;;;0.85;;
65018;SDS011;66069;51.164;-114.452;2023-06-14T05:01:51;1.60;;;0.80;;
65018;SDS011;66069;51.164;-114.452;2023-06-14T05:04:18;1.70;;;0.70;;
65018;SDS011;66069;51.164;-114.452;2023-06-14T05:06:45;1.77;;;0.85;;
65018;SDS011;66069;51.164;-114.452;2023-06-14T05:09:13;1.42;;;0.70;;
65018;SDS011;66069;51.164;-114.452;2023-06-14T05:11:40;1.60;;;0.80;;
65018;SDS011;66069;51.164;-114.452;2023-06-14T05:14:10;1.52;;;0.80;;
65018;SDS011;66069;51.164;-114.452;2023-06-14T05:16:36;1.63;;;0.82;;
65018;SDS011;66069;51.164;-114.452;2023-06-14T05:19:02;1.05;;;0.60;;
65018;SDS011;66069;51.164;-114.452;2023-06-14T05:21:29;1.75;;;0.95;;
65018;SDS011;66069;51.164;-114.452;2023-06-14T05:23:55;1.48;;;0.82;;
65018;SDS011;66069;51.164;-114.452;2023-06-14T05:26:21;1.88;;;1.00;;
65018;SDS011;66069;51.164;-114.452;2023-06-14T05:28:57;1.17;;;0.65;;
65018;SDS011;66069;51.164;-114.452;2023-06-14T05:31:24;1.90;;;0.90;;
65018;SDS011;66069;51.164;-114.452;2023-06-14T05:33:51;1.83;;;0.90;;
65018;SDS011;66069;51.164;-114.452;2023-06-14T05:36:17;2.13;;;0.90;;
65018;SDS011;66069;51.164;-114.452;2023-06-14T05:38:43;1.30;;;0.70;;
65018;SDS011;66069;51.164;-114.452;2023-06-14T05:41:09;1.27;;;0.68;;
65018;SDS011;66069;51.164;-114.452;2023-06-14T05:43:35;1.20;;;0.70;;
65018;SDS011;66069;51.164;-114.452;2023-06-14T05:46:01;1.27;;;0.63;;
65018;SDS011;66069;51.164;-114.452;2023-06-14T05:48:28;1.05;;;0.60;;
65018;SDS011;66069;51.164;-114.452;2023-06-14T05:50:54;1.75;;;0.70;;
65018;SDS011;66069;51.164;-114.452;2023-06-14T05:53:20;1.30;;;0.70;;
65018;SDS011;66069;51.164;-114.452;2023-06-14T05:55:49;1.48;;;0.60;;
65018;SDS011;66069;51.164;-114.452;2023-06-14T05:58:17;1.23;;;0.68;;
65018;SDS011;66069;51.164;-114.452;2023-06-14T06:00:45;1.70;;;0.77;;
65018;SDS011;66069;51.164;-114.452;2023-06-14T06:03:11;1.70;;;0.85;;
65018;SDS011;66069;51.164;-114.452;2023-06-14T06:05:38;2.13;;;0.88;;
65018;SDS011;66069;51.164;-114.452;2023-06-14T06:08:04;1.50;;;0.70;;
65018;SDS011;66069;51.164;-114.452;2023-06-14T06:10:31;1.73;;;0.80;;
65018;SDS011;66069;51.164;-114.452;2023-06-14T06:12:56;1.40;;;0.55;;
65018;SDS011;66069;51.164;-114.452;2023-06-14T06:15:22;1.52;;;0.90;;
65018;SDS011;66069;51.164;-114.452;2023-06-14T06:17:48;1.67;;;0.70;;
65018;SDS011;66069;51.164;-114.452;2023-06-14T06:20:16;1.67;;;0.80;;
65018;SDS011;66069;51.164;-114.452;2023-06-14T06:22:42;1.30;;;0.60;;
65018;SDS011;66069;51.164;-114.452;2023-06-14T06:25:08;1.85;;;0.90;;
65018;SDS011;66069;51.164;-114.452;2023-06-14T06:27:34;1.00;;;0.40;;
65018;SDS011;66069;51.164;-114.452;2023-06-14T06:30:03;1.83;;;0.70;;
65018;SDS011;66069;51.164;-114.452;2023-06-14T06:32:29;1.08;;;0.55;;
65018;SDS011;66069;51.164;-114.452;2023-06-14T06:34:55;1.15;;;0.70;;
65018;SDS011;66069;51.164;-114.452;2023-06-14T06:37:21;1.25;;;0.65;;
65018;SDS011;66069;51.164;-114.452;2023-06-14T06:39:47;1.73;;;0.75;;
65018;SDS011;66069;51.164;-114.452;2023-06-14T06:42:13;1.25;;;0.70;;
65018;SDS011;66069;51.164;-114.452;2023-06-14T06:44:39;1.10;;;0.60;;
65018;SDS011;66069;51.164;-114.452;2023-06-14T06:47:05;2.05;;;0.90;;
65018;SDS011;66069;51.164;-114.452;2023-06-14T06:49:31;2.35;;;0.70;;
65018;SDS011;66069;51.164;-114.452;2023-06-14T06:52:00;1.20;;;0.60;;
65018;SDS011;66069;51.164;-114.452;2023-06-14T06:54:27;1.65;;;0.75;;
65018;SDS011;66069;51.164;-114.452;2023-06-14T06:56:53;0.90;;;0.60;;
65018;SDS011;66069;51.164;-114.452;2023-06-14T06:59:19;1.63;;;0.60;;
65018;SDS011;66069;51.164;-114.452;2023-06-14T07:01:46;1.27;;;0.60;;
65018;SDS011;66069;51.164;-114.452;2023-06-14T07:04:12;1.92;;;0.70;;
65018;SDS011;66069;51.164;-114.452;2023-06-14T07:06:38;1.73;;;0.90;;
65018;SDS011;66069;51.164;-114.452;2023-06-14T07:09:05;0.93;;;0.55;;
65018;SDS011;66069;51.164;-114.452;2023-06-14T07:11:33;1.17;;;0.60;;
65018;SDS011;66069;51.164;-114.452;2023-06-14T07:13:59;1.05;;;0.60;;
65018;SDS011;66069;51.164;-114.452;2023-06-14T07:16:25;1.10;;;0.50;;
65018;SDS011;66069;51.164;-114.452;2023-06-14T07:18:51;1.17;;;0.60;;
65018;SDS011;66069;51.164;-114.452;2023-06-14T07:21:17;1.48;;;0.70;;
65018;SDS011;66069;51.164;-114.452;2023-06-14T07:23:43;1.30;;;0.63;;
65018;SDS011;66069;51.164;-114.452;2023-06-14T07:26:09;0.80;;;0.47;;
65018;SDS011;66069;51.164;-114.452;2023-06-14T07:28:35;1.38;;;0.70;;
65018;SDS011;66069;51.164;-114.452;2023-06-14T07:31:01;1.05;;;0.60;;
65018;SDS011;66069;51.164;-114.452;2023-06-14T07:33:28;1.30;;;0.60;;
65018;SDS011;66069;51.164;-114.452;2023-06-14T07:35:53;1.30;;;0.65;;
65018;SDS011;66069;51.164;-114.452;2023-06-14T07:38:20;1.27;;;0.70;;
65018;SDS011;66069;51.164;-114.452;2023-06-14T07:40:46;1.33;;;0.63;;
65018;SDS011;66069;51.164;-114.452;2023-06-14T07:43:12;0.68;;;0.45;;
65018;SDS011;66069;51.164;-114.452;2023-06-14T07:45:38;1.00;;;0.60;;
65018;SDS011;66069;51.164;-114.452;2023-06-14T07:48:04;1.10;;;0.52;;
65018;SDS011;66069;51.164;-114.452;2023-06-14T07:50:30;1.17;;;0.55;;
65018;SDS011;66069;51.164;-114.452;2023-06-14T07:52:56;1.30;;;0.60;;
65018;SDS011;66069;51.164;-114.452;2023-06-14T07:55:22;1.38;;;0.60;;
65018;SDS011;66069;51.164;-114.452;2023-06-14T07:57:48;1.70;;;0.75;;
65018;SDS011;66069;51.164;-114.452;2023-06-14T08:00:15;1.40;;;0.70;;
65018;SDS011;66069;51.164;-114.452;2023-06-14T08:02:44;1.25;;;0.70;;
65018;SDS011;66069;51.164;-114.452;2023-06-14T08:05:10;1.10;;;0.63;;
65018;SDS011;66069;51.164;-114.452;2023-06-14T08:07:39;1.25;;;0.57;;
65018;SDS011;66069;51.164;-114.452;2023-06-14T08:10:06;1.10;;;0.60;;
65018;SDS011;66069;51.164;-114.452;2023-06-14T08:12:32;0.98;;;0.50;;
65018;SDS011;66069;51.164;-114.452;2023-06-14T08:14:58;1.23;;;0.50;;
65018;SDS011;66069;51.164;-114.452;2023-06-14T08:17:24;1.20;;;0.60;;
65018;SDS011;66069;51.164;-114.452;2023-06-14T08:19:50;0.77;;;0.50;;
65018;SDS011;66069;51.164;-114.452;2023-06-14T08:22:16;1.45;;;0.60;;
65018;SDS011;66069;51.164;-114.452;2023-06-14T08:24:43;1.33;;;0.60;;
65018;SDS011;66069;51.164;-114.452;2023-06-14T08:27:10;1.40;;;0.60;;
65018;SDS011;66069;51.164;-114.452;2023-06-14T08:29:35;1.08;;;0.60;;
65018;SDS011;66069;51.164;-114.452;2023-06-14T08:32:03;1.30;;;0.60;;
65018;SDS011;66069;51.164;-114.452;2023-06-14T08:34:30;1.33;;;0.60;;
65018;SDS011;66069;51.164;-114.452;2023-06-14T08:36:56;1.15;;;0.55;;
65018;SDS011;66069;51.164;-114.452;2023-06-14T08:39:22;1.38;;;0.73;;
65018;SDS011;66069;51.164;-114.452;2023-06-14T08:41:48;1.17;;;0.63;;
65018;SDS011;66069;51.164;-114.452;2023-06-14T08:44:17;0.77;;;0.50;;
65018;SDS011;66069;51.164;-114.452;2023-06-14T08:46:43;1.42;;;0.70;;
65018;SDS011;66069;51.164;-114.452;2023-06-14T08:49:11;0.90;;;0.50;;
65018;SDS011;66069;51.164;-114.452;2023-06-14T08:51:37;0.73;;;0.60;;
65018;SDS011;66069;51.164;-114.452;2023-06-14T08:54:03;1.25;;;0.60;;
65018;SDS011;66069;51.164;-114.452;2023-06-14T08:56:30;1.15;;;0.70;;
65018;SDS011;66069;51.164;-114.452;2023-06-14T08:58:57;0.98;;;0.50;;
65018;SDS011;66069;51.164;-114.452;2023-06-14T09:01:26;1.07;;;0.57;;
65018;SDS011;66069;51.164;-114.452;2023-06-14T09:03:52;1.25;;;0.63;;
65018;SDS011;66069;51.164;-114.452;2023-06-14T09:06:20;1.17;;;0.60;;
65018;SDS011;66069;51.164;-114.452;2023-06-14T09:08:48;1.08;;;0.52;;
65018;SDS011;66069;51.164;-114.452;2023-06-14T09:11:15;1.17;;;0.60;;
65018;SDS011;66069;51.164;-114.452;2023-06-14T09:13:41;1.00;;;0.50;;
65018;SDS011;66069;51.164;-114.452;2023-06-14T09:16:08;1.52;;;0.63;;
65018;SDS011;66069;51.164;-114.452;2023-06-14T09:18:35;1.20;;;0.60;;
65018;SDS011;66069;51.164;-114.452;2023-06-14T09:21:01;1.08;;;0.52;;
65018;SDS011;66069;51.164;-114.452;2023-06-14T09:23:27;2.05;;;0.80;;
65018;SDS011;66069;51.164;-114.452;2023-06-14T09:25:52;0.80;;;0.47;;
65018;SDS011;66069;51.164;-114.452;2023-06-14T09:28:18;1.20;;;0.70;;
65018;SDS011;66069;51.164;-114.452;2023-06-14T09:30:47;1.02;;;0.50;;
65018;SDS011;66069;51.164;-114.452;2023-06-14T09:33:17;1.35;;;0.57;;
65018;SDS011;66069;51.164;-114.452;2023-06-14T09:35:45;0.90;;;0.50;;
65018;SDS011;66069;51.164;-114.452;2023-06-14T09:38:11;1.05;;;0.50;;
65018;SDS011;66069;51.164;-114.452;2023-06-14T09:40:37;0.80;;;0.50;;
65018;SDS011;66069;51.164;-114.452;2023-06-14T09:43:06;1.25;;;0.57;;
65018;SDS011;66069;51.164;-114.452;2023-06-14T09:45:36;0.90;;;0.50;;
65018;SDS011;66069;51.164;-114.452;2023-06-14T09:48:04;0.98;;;0.50;;
65018;SDS011;66069;51.164;-114.452;2023-06-14T09:50:30;1.45;;;0.60;;
65018;SDS011;66069;51.164;-114.452;2023-06-14T09:52:57;1.23;;;0.57;;
65018;SDS011;66069;51.164;-114.452;2023-06-14T09:55:25;1.55;;;0.75;;
65018;SDS011;66069;51.164;-114.452;2023-06-14T09:57:54;1.52;;;0.50;;
65018;SDS011;66069;51.164;-114.452;2023-06-14T10:00:21;0.80;;;0.50;;
65018;SDS011;66069;51.164;-114.452;2023-06-14T10:02:49;0.77;;;0.50;;
65018;SDS011;66069;51.164;-114.452;2023-06-14T10:05:18;1.27;;;0.60;;
65018;SDS011;66069;51.164;-114.452;2023-06-14T10:07:51;1.27;;;0.60;;
65018;SDS011;66069;51.164;-114.452;2023-06-14T10:10:18;1.52;;;0.65;;
65018;SDS011;66069;51.164;-114.452;2023-06-14T10:12:44;0.98;;;0.50;;
65018;SDS011;66069;51.164;-114.452;2023-06-14T10:15:18;0.93;;;0.40;;
65018;SDS011;66069;51.164;-114.452;2023-06-14T10:17:56;0.57;;;0.43;;
65018;SDS011;66069;51.164;-114.452;2023-06-14T10:23:14;1.13;;;0.60;;
65018;SDS011;66069;51.164;-114.452;2023-06-14T10:25:38;1.20;;;0.60;;
65018;SDS011;66069;51.164;-114.452;2023-06-14T10:28:17;0.88;;;0.40;;
65018;SDS011;66069;51.164;-114.452;2023-06-14T10:31:02;1.70;;;0.70;;
65018;SDS011;66069;51.164;-114.452;2023-06-14T10:33:36;1.13;;;0.60;;
65018;SDS011;66069;51.164;-114.452;2023-06-14T10:36:08;1.30;;;0.60;;
65018;SDS011;66069;51.164;-114.452;2023-06-14T10:38:36;1.05;;;0.57;;
65018;SDS011;66069;51.164;-114.452;2023-06-14T10:41:02;1.25;;;0.70;;
65018;SDS011;66069;51.164;-114.452;2023-06-14T10:43:29;1.10;;;0.65;;
65018;SDS011;66069;51.164;-114.452;2023-06-14T10:48:43;1.20;;;0.50;;
65018;SDS011;66069;51.164;-114.452;2023-06-14T10:51:19;1.10;;;0.60;;
65018;SDS011;66069;51.164;-114.452;2023-06-14T10:53:48;0.77;;;0.50;;
65018;SDS011;66069;51.164;-114.452;2023-06-14T10:56:23;0.93;;;0.52;;
65018;SDS011;66069;51.164;-114.452;2023-06-14T10:58:52;1.50;;;0.68;;
65018;SDS011;66069;51.164;-114.452;2023-06-14T11:01:19;1.20;;;0.60;;
65018;SDS011;66069;51.164;-114.452;2023-06-14T11:03:50;0.98;;;0.50;;
65018;SDS011;66069;51.164;-114.452;2023-06-14T11:06:21;0.93;;;0.40;;
65018;SDS011;66069;51.164;-114.452;2023-06-14T11:11:33;0.80;;;0.50;;
65018;SDS011;66069;51.164;-114.452;2023-06-14T11:13:59;1.13;;;0.60;;
65018;SDS011;66069;51.164;-114.452;2023-06-14T11:16:27;1.08;;;0.50;;
65018;SDS011;66069;51.164;-114.452;2023-06-14T11:18:53;0.98;;;0.57;;
65018;SDS011;66069;51.164;-114.452;2023-06-14T11:21:19;1.00;;;0.50;;
65018;SDS011;66069;51.164;-114.452;2023-06-14T11:23:51;1.35;;;0.68;;
65018;SDS011;66069;51.164;-114.452;2023-06-14T11:26:25;1.08;;;0.60;;
65018;SDS011;66069;51.164;-114.452;2023-06-14T11:28:54;0.90;;;0.60;;
65018;SDS011;66069;51.164;-114.452;2023-06-14T11:31:20;1.10;;;0.52;;
65018;SDS011;66069;51.164;-114.452;2023-06-14T11:33:49;1.15;;;0.55;;
65018;SDS011;66069;51.164;-114.452;2023-06-14T11:36:15;1.52;;;0.65;;
65018;SDS011;66069;51.164;-114.452;2023-06-14T11:38:42;0.73;;;0.50;;
65018;SDS011;66069;51.164;-114.452;2023-06-14T11:41:08;1.10;;;0.60;;
65018;SDS011;66069;51.164;-114.452;2023-06-14T11:43:33;1.45;;;0.60;;
65018;SDS011;66069;51.164;-114.452;2023-06-14T11:46:00;1.58;;;0.60;;
65018;SDS011;66069;51.164;-114.452;2023-06-14T11:48:40;0.65;;;0.40;;
65018;SDS011;66069;51.164;-114.452;2023-06-14T11:51:07;0.77;;;0.50;;
65018;SDS011;66069;51.164;-114.452;2023-06-14T11:53:33;0.82;;;0.50;;
65018;SDS011;66069;51.164;-114.452;2023-06-14T11:55:59;1.25;;;0.70;;
65018;SDS011;66069;51.164;-114.452;2023-06-14T11:58:25;1.38;;;0.60;;
65018;SDS011;66069;51.164;-114.452;2023-06-14T12:00:52;0.95;;;0.55;;
65018;SDS011;66069;51.164;-114.452;2023-06-14T12:03:22;1.25;;;0.60;;
65018;SDS011;66069;51.164;-114.452;2023-06-14T12:05:48;1.20;;;0.60;;
65018;SDS011;66069;51.164;-114.452;2023-06-14T12:08:14;1.25;;;0.60;;
65018;SDS011;66069;51.164;-114.452;2023-06-14T12:10:42;1.45;;;0.77;;
65018;SDS011;66069;51.164;-114.452;2023-06-14T12:13:12;1.13;;;0.50;;
65018;SDS011;66069;51.164;-114.452;2023-06-14T12:15:38;1.23;;;0.52;;
65018;SDS011;66069;51.164;-114.452;2023-06-14T12:18:05;1.30;;;0.60;;
65018;SDS011;66069;51.164;-114.452;2023-06-14T12:20:33;1.40;;;0.52;;
65018;SDS011;66069;51.164;-114.452;2023-06-14T12:23:02;1.83;;;0.70;;
65018;SDS011;66069;51.164;-114.452;2023-06-14T12:27:57;1.33;;;0.70;;
65018;SDS011;66069;51.164;-114.452;2023-06-14T12:30:23;1.00;;;0.50;;
65018;SDS011;66069;51.164;-114.452;2023-06-14T12:32:49;1.70;;;0.60;;
65018;SDS011;66069;51.164;-114.452;2023-06-14T12:35:17;1.25;;;0.73;;
65018;SDS011;66069;51.164;-114.452;2023-06-14T12:37:44;1.08;;;0.57;;
65018;SDS011;66069;51.164;-114.452;2023-06-14T12:40:11;1.33;;;0.60;;
65018;SDS011;66069;51.164;-114.452;2023-06-14T12:42:37;1.15;;;0.50;;
65018;SDS011;66069;51.164;-114.452;2023-06-14T12:45:03;0.80;;;0.55;;
65018;SDS011;66069;51.164;-114.452;2023-06-14T12:47:29;0.82;;;0.47;;
65018;SDS011;66069;51.164;-114.452;2023-06-14T12:49:55;1.10;;;0.60;;
65018;SDS011;66069;51.164;-114.452;2023-06-14T12:52:21;1.35;;;0.63;;
65018;SDS011;66069;51.164;-114.452;2023-06-14T12:54:47;0.82;;;0.50;;
65018;SDS011;66069;51.164;-114.452;2023-06-14T12:57:13;1.35;;;0.68;;
65018;SDS011;66069;51.164;-114.452;2023-06-14T12:59:39;1.27;;;0.60;;
65018;SDS011;66069;51.164;-114.452;2023-06-14T13:02:15;1.20;;;0.60;;
65018;SDS011;66069;51.164;-114.452;2023-06-14T13:04:41;1.48;;;0.68;;
65018;SDS011;66069;51.164;-114.452;2023-06-14T13:07:07;1.48;;;0.63;;
65018;SDS011;66069;51.164;-114.452;2023-06-14T13:09:33;1.13;;;0.50;;
65018;SDS011;66069;51.164;-114.452;2023-06-14T13:11:59;1.33;;;0.68;;
65018;SDS011;66069;51.164;-114.452;2023-06-14T13:14:25;0.95;;;0.55;;
65018;SDS011;66069;51.164;-114.452;2023-06-14T13:16:51;1.52;;;0.80;;
65018;SDS011;66069;51.164;-114.452;2023-06-14T13:19:17;1.02;;;0.60;;
65018;SDS011;66069;51.164;-114.452;2023-06-14T13:21:43;0.88;;;0.50;;
65018;SDS011;66069;51.164;-114.452;2023-06-14T13:24:09;1.38;;;0.68;;
65018;SDS011;66069;51.164;-114.452;2023-06-14T13:26:35;1.23;;;0.60;;
65018;SDS011;66069;51.164;-114.452;2023-06-14T13:29:00;1.55;;;0.65;;
65018;SDS011;66069;51.164;-114.452;2023-06-14T13:31:26;1.25;;;0.57;;
65018;SDS011;66069;51.164;-114.452;2023-06-14T13:33:52;1.50;;;0.70;;
65018;SDS011;66069;51.164;-114.452;2023-06-14T13:36:18;1.27;;;0.52;;
65018;SDS011;66069;51.164;-114.452;2023-06-14T13:38:44;1.67;;;0.80;;
65018;SDS011;66069;51.164;-114.452;2023-06-14T13:41:10;2.13;;;0.85;;
65018;SDS011;66069;51.164;-114.452;2023-06-14T13:43:36;0.77;;;0.45;;
65018;SDS011;66069;51.164;-114.452;2023-06-14T13:46:02;1.05;;;0.50;;
65018;SDS011;66069;51.164;-114.452;2023-06-14T13:48:28;1.10;;;0.60;;
65018;SDS011;66069;51.164;-114.452;2023-06-14T13:50:54;0.98;;;0.60;;
65018;SDS011;66069;51.164;-114.452;2023-06-14T13:53:20;1.20;;;0.55;;
65018;SDS011;66069;51.164;-114.452;2023-06-14T13:55:46;0.98;;;0.47;;
65018;SDS011;66069;51.164;-114.452;2023-06-14T13:58:12;1.63;;;0.70;;
65018;SDS011;66069;51.164;-114.452;2023-06-14T14:00:40;1.38;;;0.63;;
65018;SDS011;66069;51.164;-114.452;2023-06-14T14:03:06;1.58;;;0.60;;
65018;SDS011;66069;51.164;-114.452;2023-06-14T14:05:34;1.10;;;0.57;;
65018;SDS011;66069;51.164;-114.452;2023-06-14T14:08:00;1.10;;;0.63;;
65018;SDS011;66069;51.164;-114.452;2023-06-14T14:10:27;1.08;;;0.60;;
65018;SDS011;66069;51.164;-114.452;2023-06-14T14:12:53;1.08;;;0.52;;
65018;SDS011;66069;51.164;-114.452;2023-06-14T14:15:20;1.25;;;0.63;;
65018;SDS011;66069;51.164;-114.452;2023-06-14T14:17:46;1.42;;;0.68;;
65018;SDS011;66069;51.164;-114.452;2023-06-14T14:20:12;1.08;;;0.60;;
65018;SDS011;66069;51.164;-114.452;2023-06-14T14:22:43;1.17;;;0.60;;